Monday, December 17, 2018, 10:42 AM GMT
Back to Local

CWBK, Caribou Point Meteorological Aeronautical Presentation System

Location: , , Canada Lat: 45.767
Local Time: 10:42 AM GMT (10:42 GMT) Lon: -62.683
Time Zone: GMT Elev: 6 ft

Show me the last for .
Show Coded

Time T Td Feel RH Dir Speed Gust Alt SLP Vis Weather Sky Remarks
2018-12-17 10:00 31 28 20 88 110° 16 - - 29.89 0 None
2018-12-17 09:00 31 27 21 87 130° 12 - - 29.92 0 None
2018-12-17 08:00 30 27 19 87 120° 15 - - 29.95 0 None
2018-12-17 07:00 29 26 21 88 130° 8 - - 29.99 0 None
2018-12-17 06:00 31 27 20 87 120° 14 - - 30.03 0 None
2018-12-17 05:00 31 28 20 88 100° 14 - - 30.05 0 None
2018-12-17 04:00 30 27 21 90 130° 9 - - 30.10 0 None
2018-12-17 03:00 30 28 23 91 100° 7 - - 30.13 0 None
2018-12-17 02:00 29 27 25 90 110° 3 - - 30.14 0 None
2018-12-17 01:00 29 27 26 89 160° 3 - - 30.17 0 None
2018-12-17 00:00 31 28 24 88 70° 7 - - 30.17 0 1-hr Precip Total: 0.01"
2018-12-16 23:00 31 27 24 86 70° 7 - - 30.18 0 None
2018-12-16 22:00 32 27 25 82 70° 7 - - 30.18 0 None
2018-12-16 21:00 30 25 27 81 160° 3 - - 30.19 0 None
2018-12-16 20:00 31 26 28 80 160° 3 - - 30.19 0 None
2018-12-16 19:00 33 26 - 76 180° 2 - - 30.19 0 1-hr Precip Total: 0.02"
2018-12-16 18:00 34 26 30 72 300° 5 - - 30.16 0 None
2018-12-16 17:00 35 28 29 74 290° 7 - - 30.17 0 None
2018-12-16 16:00 34 28 30 77 310° 5 - - 30.19 0 None
2018-12-16 15:00 32 27 24 82 320° 9 - - 30.21 0 None
2018-12-16 14:00 32 27 22 83 330° 13 - - 30.22 0 None
2018-12-16 13:00 32 28 23 83 300° 12 - - 30.21 0 None
2018-12-16 12:00 31 28 21 85 300° 15 - - 30.19 0 None
2018-12-16 11:00 31 27 20 85 290° 16 - - 30.20 0 None

Support USWX by starting your Amazon purchase here.